Time;durP1;ratioP1;P1;durP2;ratioP2;P2;SDS_P1;SDS_P2;PMS_P1;PMS_P2;Temp;Humidity;BMP_temperature;BMP_pressure;BME280_temperature;BME280_humidity;BME280_pressure;Samples;Min_cycle;Max_cycle;Signal;HPM_P1;HPM_P2
2022/05/28 00:01:05;;;;;;;9.85;5.20;;;20.80;99.90;;;;;;5017015;28;20029;-83
2022/05/28 00:03:31;;;;;;;14.38;5.45;;;20.90;99.90;;;;;;5018919;28;20196;-83
2022/05/28 00:05:57;;;;;;;13.80;5.82;;;20.90;99.90;;;;;;5042337;28;20099;-83
2022/05/28 00:08:24;;;;;;;12.50;5.40;;;20.90;99.90;;;;;;5037369;28;20069;-83
2022/05/28 00:10:51;;;;;;;13.02;5.50;;;20.90;99.90;;;;;;5042474;28;20044;-83
2022/05/28 00:13:17;;;;;;;10.10;5.40;;;20.90;99.90;;;;;;5040434;28;20106;-83
2022/05/28 00:15:43;;;;;;;14.18;5.20;;;20.90;99.90;;;;;;5026147;28;20026;-83
2022/05/28 00:18:09;;;;;;;11.07;5.63;;;20.90;99.90;;;;;;5041424;28;20432;-84
2022/05/28 00:20:35;;;;;;;10.88;5.25;;;20.90;99.90;;;;;;5028550;28;20031;-83
2022/05/28 00:23:02;;;;;;;13.40;5.85;;;20.90;99.90;;;;;;5023402;28;20510;-83
2022/05/28 00:25:28;;;;;;;10.02;5.55;;;20.90;99.90;;;;;;5044762;28;20055;-84
2022/05/28 00:27:54;;;;;;;11.13;5.25;;;20.90;99.90;;;;;;5027994;28;20056;-85
2022/05/28 00:30:20;;;;;;;14.30;5.28;;;20.90;99.90;;;;;;5041208;28;20460;-84
2022/05/28 00:32:47;;;;;;;11.20;5.43;;;20.90;99.90;;;;;;5040535;28;20107;-84
2022/05/28 00:35:16;;;;;;;16.88;5.70;;;20.90;99.90;;;;;;5045398;28;20096;-84
2022/05/28 00:37:45;;;;;;;11.63;5.07;;;20.80;99.90;;;;;;5040063;28;20036;-84
2022/05/28 00:40:22;;;;;;;23.05;5.88;;;20.80;99.90;;;;;;5045824;28;20446;-84
2022/05/28 00:42:51;;;;;;;15.68;5.78;;;20.80;99.90;;;;;;5046456;28;20029;-84
2022/05/28 00:45:18;;;;;;;19.30;5.40;;;20.80;99.90;;;;;;5043796;28;20036;-84
2022/05/28 00:47:48;;;;;;;16.65;5.30;;;20.80;99.90;;;;;;5045250;28;20117;-85
2022/05/28 00:50:15;;;;;;;15.05;6.00;;;20.90;99.90;;;;;;5040292;28;20072;-83
2022/05/28 00:52:42;;;;;;;11.95;5.13;;;20.90;99.90;;;;;;5022517;28;20021;-84
2022/05/28 00:55:08;;;;;;;11.93;4.95;;;20.90;99.90;;;;;;5041326;28;20025;-83
2022/05/28 00:57:36;;;;;;;12.82;5.10;;;20.90;99.90;;;;;;5027301;28;20084;-83
2022/05/28 01:00:04;;;;;;;10.43;5.18;;;20.90;99.90;;;;;;5039345;28;20017;-83
2022/05/28 01:03:00;;;;;;;12.23;5.32;;;20.90;99.90;;;;;;5047252;28;20021;-83
2022/05/28 01:05:41;;;;;;;13.05;5.30;;;20.80;99.90;;;;;;5023891;28;20028;-83
2022/05/28 01:08:31;;;;;;;11.85;5.30;;;20.80;99.90;;;;;;5020101;28;20040;-83
2022/05/28 01:11:12;;;;;;;10.07;5.03;;;20.70;99.90;;;;;;5039124;28;20025;-84
2022/05/28 01:13:48;;;;;;;10.40;5.10;;;20.70;99.90;;;;;;5033124;28;20025;-84
2022/05/28 01:16:40;;;;;;;14.63;4.90;;;20.70;99.90;;;;;;5026422;28;20027;-84
2022/05/28 01:19:43;;;;;;;15.40;5.70;;;20.70;99.90;;;;;;5032033;28;20045;-83
2022/05/28 01:22:32;;;;;;;12.35;5.28;;;20.60;99.90;;;;;;5045180;28;20456;-83
2022/05/28 01:25:24;;;;;;;11.13;5.35;;;20.50;99.90;;;;;;5041593;28;20399;-83
2022/05/28 01:27:57;;;;;;;14.23;5.25;;;20.40;99.90;;;;;;5042770;28;20029;-84
2022/05/28 01:30:23;;;;;;;11.30;4.65;;;20.40;99.90;;;;;;5022938;28;20025;-84
2022/05/28 01:32:57;;;;;;;11.90;5.30;;;20.40;99.90;;;;;;5039188;28;20693;-83
2022/05/28 01:35:26;;;;;;;11.73;5.38;;;20.40;99.90;;;;;;5040017;28;20032;-83
2022/05/28 01:37:53;;;;;;;12.30;5.38;;;20.40;99.90;;;;;;5016800;28;20159;-82
2022/05/28 01:40:22;;;;;;;7.53;4.85;;;20.50;99.90;;;;;;5043505;28;20050;-83
2022/05/28 01:42:51;;;;;;;11.73;4.55;;;20.50;99.90;;;;;;5045240;28;20398;-83
2022/05/28 01:45:25;;;;;;;11.60;5.03;;;20.50;99.90;;;;;;5042894;28;20028;-83
2022/05/28 01:47:57;;;;;;;8.23;4.32;;;20.60;99.90;;;;;;5022961;28;20120;-83
2022/05/28 01:50:25;;;;;;;11.48;4.63;;;20.60;99.90;;;;;;5038530;28;20033;-82
2022/05/28 01:52:52;;;;;;;13.88;4.20;;;20.60;99.90;;;;;;5044926;28;20677;-83
2022/05/28 01:55:28;;;;;;;9.85;4.32;;;20.60;99.90;;;;;;5042987;28;20017;-83
2022/05/28 01:57:54;;;;;;;13.50;4.93;;;20.70;99.90;;;;;;5035311;28;20017;-86
2022/05/28 02:00:20;;;;;;;9.35;4.82;;;20.60;99.90;;;;;;5039650;28;20029;-83
2022/05/28 02:02:46;;;;;;;8.77;4.50;;;20.60;99.90;;;;;;5039619;28;20021;-83
2022/05/28 02:05:13;;;;;;;22.92;5.93;;;20.60;99.90;;;;;;5043902;28;20074;-84
2022/05/28 02:07:38;;;;;;;15.10;5.13;;;20.50;99.90;;;;;;5038718;28;20033;-84
2022/05/28 02:10:15;;;;;;;8.73;4.95;;;20.50;99.90;;;;;;5044256;28;20028;-84
2022/05/28 02:12:56;;;;;;;13.43;5.68;;;20.40;99.90;;;;;;5027934;28;20036;-84
2022/05/28 02:15:44;;;;;;;13.85;4.80;;;20.40;99.90;;;;;;5038616;28;20017;-84
2022/05/28 02:18:43;;;;;;;11.48;5.15;;;20.30;99.90;;;;;;5036987;28;20025;-83
2022/05/28 02:21:36;;;;;;;10.85;4.78;;;20.20;99.90;;;;;;5033768;28;20385;-83
2022/05/28 02:24:07;;;;;;;;;;;20.20;99.90;;;;;;5038835;28;20029;-83
2022/05/28 02:26:43;;;;;;;15.15;4.82;;;20.20;99.90;;;;;;5027225;28;19931;-86
2022/05/28 02:29:10;;;;;;;7.55;3.97;;;20.20;99.90;;;;;;5022052;28;20443;-86
2022/05/28 02:31:36;;;;;;;11.45;4.57;;;20.30;99.90;;;;;;5016936;28;20116;-86
2022/05/28 02:34:03;;;;;;;12.27;4.25;;;20.40;99.90;;;;;;5040096;28;20492;-85
2022/05/28 02:36:29;;;;;;;13.40;4.32;;;20.40;99.90;;;;;;5036969;28;20024;-86
2022/05/28 02:38:55;;;;;;;20.17;4.45;;;20.40;99.90;;;;;;5027511;28;20722;-86
2022/05/28 02:41:22;;;;;;;9.50;3.90;;;20.50;99.90;;;;;;5040118;28;20029;-86
2022/05/28 02:43:47;;;;;;;11.95;4.25;;;20.70;99.90;;;;;;5042143;28;20076;-86
2022/05/28 02:46:13;;;;;;;7.55;4.00;;;20.80;99.90;;;;;;5042764;28;20146;-86
2022/05/28 02:48:39;;;;;;;11.82;4.10;;;20.90;99.90;;;;;;5040389;28;20029;-85
2022/05/28 02:51:11;;;;;;;11.73;4.18;;;20.90;99.90;;;;;;5023718;28;20179;-86
2022/05/28 02:53:37;;;;;;;10.77;4.18;;;21.00;99.90;;;;;;5030998;28;20051;-86
2022/05/28 02:56:04;;;;;;;7.40;4.05;;;21.00;99.90;;;;;;5045205;28;20071;-83
2022/05/28 02:58:30;;;;;;;34.53;4.75;;;21.00;99.90;;;;;;5026056;28;20017;-85
2022/05/28 03:00:56;;;;;;;10.60;4.55;;;21.10;99.90;;;;;;5034914;28;20034;-85
2022/05/28 03:03:22;;;;;;;6.97;4.13;;;21.20;99.90;;;;;;5038415;28;20029;-83
2022/05/28 03:05:52;;;;;;;13.20;4.13;;;21.20;99.90;;;;;;5044455;28;20025;-82
2022/05/28 03:08:18;;;;;;;12.20;4.07;;;21.20;99.90;;;;;;5024864;28;20506;-85
2022/05/28 03:10:45;;;;;;;13.73;4.43;;;21.30;99.90;;;;;;5040902;28;20033;-86
2022/05/28 03:13:11;;;;;;;7.93;4.43;;;21.30;99.90;;;;;;5042865;28;20021;-84
2022/05/28 03:15:38;;;;;;;14.07;4.57;;;21.30;99.90;;;;;;5040651;28;20076;-83
2022/05/28 03:18:04;;;;;;;15.07;4.03;;;21.30;99.90;;;;;;5038514;28;20013;-84
2022/05/28 03:20:30;;;;;;;8.82;4.07;;;21.30;99.90;;;;;;5023912;28;20021;-84
2022/05/28 03:22:57;;;;;;;8.20;4.28;;;21.20;99.90;;;;;;5042970;28;20498;-85
2022/05/28 03:25:23;;;;;;;9.73;4.00;;;21.30;99.90;;;;;;5028098;28;20495;-84
2022/05/28 03:27:49;;;;;;;9.48;3.72;;;21.30;99.90;;;;;;5043475;28;20029;-82
2022/05/28 03:30:14;;;;;;;10.18;4.32;;;21.30;99.90;;;;;;5036822;28;20381;-84
2022/05/28 03:32:40;;;;;;;11.23;4.45;;;21.30;99.90;;;;;;5038344;28;20254;-84
2022/05/28 03:35:07;;;;;;;8.70;3.88;;;21.30;99.90;;;;;;5036531;28;20022;-84
2022/05/28 03:37:33;;;;;;;8.77;4.15;;;21.30;99.90;;;;;;5044277;28;20112;-84
2022/05/28 03:39:59;;;;;;;9.25;4.30;;;21.30;99.90;;;;;;5041436;28;20248;-84
2022/05/28 03:42:24;;;;;;;7.75;3.97;;;21.30;99.90;;;;;;5045160;28;20091;-85
2022/05/28 03:44:50;;;;;;;6.35;4.00;;;21.30;99.90;;;;;;5044431;28;20475;-85
2022/05/28 03:47:16;;;;;;;11.27;4.57;;;21.30;99.90;;;;;;5040861;28;20108;-84
2022/05/28 03:49:43;;;;;;;9.65;4.50;;;21.30;99.90;;;;;;5043838;28;20041;-83
2022/05/28 03:52:10;;;;;;;11.35;4.65;;;21.30;99.90;;;;;;5028867;28;20365;-86
2022/05/28 03:54:43;;;;;;;11.20;4.25;;;21.30;99.90;;;;;;5042389;28;20423;-85
2022/05/28 03:57:16;;;;;;;13.48;4.70;;;21.30;99.90;;;;;;5043625;28;20066;-86
2022/05/28 03:59:42;;;;;;;13.48;4.32;;;21.40;99.90;;;;;;5043882;28;20052;-86
2022/05/28 04:02:09;;;;;;;14.15;4.40;;;21.40;99.90;;;;;;5027690;28;20056;-86
2022/05/28 04:04:34;;;;;;;16.05;4.97;;;21.40;99.90;;;;;;5028144;28;20018;-86
2022/05/28 04:07:00;;;;;;;10.85;4.43;;;21.40;99.90;;;;;;5041206;28;20492;-86
2022/05/28 04:09:27;;;;;;;11.75;4.28;;;21.40;99.90;;;;;;5045492;28;20100;-86
2022/05/28 04:11:52;;;;;;;14.15;4.80;;;21.40;99.90;;;;;;5048095;28;20116;-86
2022/05/28 04:14:18;;;;;;;10.63;4.25;;;21.40;99.90;;;;;;5023753;28;20549;-85
2022/05/28 04:16:44;;;;;;;9.30;4.80;;;21.40;99.90;;;;;;5035093;28;20024;-86
2022/05/28 04:19:10;;;;;;;8.98;4.60;;;21.40;99.90;;;;;;5044730;28;20456;-86
2022/05/28 04:21:36;;;;;;;9.55;4.65;;;21.40;99.90;;;;;;5029858;28;20028;-86
2022/05/28 04:24:03;;;;;;;9.77;4.70;;;21.40;99.90;;;;;;5042695;28;20423;-85
2022/05/28 04:26:29;;;;;;;11.95;4.63;;;21.40;99.90;;;;;;5026743;28;20031;-86
2022/05/28 04:28:54;;;;;;;14.35;4.57;;;21.50;99.90;;;;;;5044547;28;20029;-83
2022/05/28 04:31:20;;;;;;;19.83;4.55;;;21.50;99.90;;;;;;5040341;28;20080;-83
2022/05/28 04:33:46;;;;;;;11.57;4.53;;;21.50;99.90;;;;;;5041739;28;20018;-83
2022/05/28 04:36:12;;;;;;;9.07;4.18;;;21.50;99.90;;;;;;5027608;28;20083;-83
2022/05/28 04:38:38;;;;;;;7.20;4.20;;;21.50;99.90;;;;;;5040160;28;20026;-83
2022/05/28 04:41:03;;;;;;;9.98;4.60;;;21.50;99.90;;;;;;5029687;28;20372;-83
2022/05/28 04:43:29;;;;;;;10.23;4.78;;;21.50;99.90;;;;;;5046724;28;20024;-84
2022/05/28 04:45:55;;;;;;;13.45;4.82;;;21.50;99.90;;;;;;5035126;28;20029;-83
2022/05/28 04:48:20;;;;;;;7.75;4.50;;;21.60;99.90;;;;;;5041073;28;20025;-83
2022/05/28 04:50:46;;;;;;;13.52;4.47;;;21.50;99.90;;;;;;5028625;28;20132;-84
2022/05/28 04:53:12;;;;;;;11.38;4.53;;;21.60;99.90;;;;;;5026747;28;20383;-85
2022/05/28 04:55:39;;;;;;;20.48;4.63;;;21.60;99.90;;;;;;5023169;28;20021;-84
2022/05/28 04:58:06;;;;;;;83.35;6.35;;;21.70;99.90;;;;;;5040587;28;20282;-85
2022/05/28 05:00:31;;;;;;;11.65;4.18;;;21.70;99.90;;;;;;5040020;28;20032;-82
2022/05/28 05:02:57;;;;;;;14.73;4.13;;;21.60;99.90;;;;;;5022863;28;20361;-86
2022/05/28 05:05:23;;;;;;;23.77;4.45;;;21.60;99.90;;;;;;5040829;28;20044;-88
2022/05/28 05:07:49;;;;;;;7.28;3.80;;;21.50;99.90;;;;;;5018478;28;20040;-83
2022/05/28 05:10:15;;;;;;;16.50;4.25;;;21.40;99.90;;;;;;5025747;28;20479;-88
2022/05/28 05:12:40;;;;;;;15.63;4.10;;;21.40;99.90;;;;;;5021926;28;20032;-83
2022/05/28 05:15:07;;;;;;;13.07;3.97;;;21.40;99.90;;;;;;5044832;28;20123;-83
2022/05/28 05:17:33;;;;;;;9.85;3.92;;;21.40;99.90;;;;;;5040090;28;20080;-83
2022/05/28 05:19:58;;;;;;;8.77;3.70;;;21.40;99.90;;;;;;5044803;28;20025;-81
2022/05/28 05:22:27;;;;;;;5.75;3.63;;;21.50;99.90;;;;;;5039810;28;20040;-83
2022/05/28 05:24:54;;;;;;;7.43;4.00;;;21.50;99.90;;;;;;5043488;28;20021;-81
2022/05/28 05:27:20;;;;;;;7.95;4.00;;;21.50;99.90;;;;;;5039865;28;20045;-84
2022/05/28 05:29:45;;;;;;;9.15;4.03;;;21.50;99.90;;;;;;5041856;28;20022;-82
2022/05/28 05:32:11;;;;;;;5.00;3.75;;;21.60;99.90;;;;;;5038290;28;20032;-82
2022/05/28 05:34:37;;;;;;;11.35;3.88;;;21.60;99.90;;;;;;5044383;28;20025;-85
2022/05/28 05:37:04;;;;;;;9.60;3.38;;;21.60;99.90;;;;;;5039518;28;20068;-85
2022/05/28 05:39:30;;;;;;;6.75;3.92;;;21.60;99.90;;;;;;5037166;28;20025;-85
2022/05/28 05:41:56;;;;;;;5.78;3.80;;;21.60;99.90;;;;;;5038440;28;20025;-85
2022/05/28 05:44:22;;;;;;;5.28;3.60;;;21.60;99.90;;;;;;5043545;28;20033;-86
2022/05/28 05:46:48;;;;;;;17.77;3.53;;;21.70;99.90;;;;;;5041246;28;20032;-84
2022/05/28 05:49:14;;;;;;;7.88;3.55;;;21.70;99.90;;;;;;5023835;28;20029;-84
2022/05/28 05:51:45;;;;;;;7.57;3.42;;;21.70;99.90;;;;;;5023462;28;20099;-84
2022/05/28 05:54:12;;;;;;;6.47;3.70;;;21.70;99.90;;;;;;5042891;28;20179;-82
2022/05/28 05:56:38;;;;;;;4.65;3.10;;;21.70;99.90;;;;;;5046040;28;20409;-82
2022/05/28 05:59:04;;;;;;;6.28;3.65;;;21.80;99.90;;;;;;5040477;28;20024;-85
2022/05/28 06:01:30;;;;;;;8.88;3.80;;;21.80;99.90;;;;;;5037595;28;20027;-82
2022/05/28 06:03:55;;;;;;;7.47;3.33;;;21.80;99.90;;;;;;5041503;28;20025;-84
2022/05/28 06:06:21;;;;;;;17.42;3.63;;;21.70;99.90;;;;;;5045702;28;20069;-82
2022/05/28 06:08:47;;;;;;;19.30;3.80;;;21.70;99.90;;;;;;5044479;28;20124;-82
2022/05/28 06:11:13;;;;;;;11.68;4.43;;;21.30;99.90;;;;;;5042595;28;20395;-82
2022/05/28 06:13:39;;;;;;;7.20;3.78;;;20.70;99.90;;;;;;5045650;28;20105;-82
2022/05/28 06:16:05;;;;;;;14.57;4.47;;;19.90;99.90;;;;;;5043602;28;20108;-81
2022/05/28 06:18:31;;;;;;;14.40;5.43;;;19.50;99.90;;;;;;5024928;28;20372;-82
2022/05/28 06:20:59;;;;;;;10.43;4.95;;;19.30;99.90;;;;;;5024315;28;20025;-82
2022/05/28 06:23:25;;;;;;;10.80;4.80;;;19.20;99.90;;;;;;5042300;28;20086;-83
2022/05/28 06:25:51;;;;;;;12.45;5.05;;;19.10;99.90;;;;;;5041422;28;20028;-83
2022/05/28 06:28:17;;;;;;;9.68;4.38;;;19.10;99.90;;;;;;5043474;28;20484;-83
2022/05/28 06:30:44;;;;;;;7.07;4.63;;;19.20;99.90;;;;;;5020087;28;20105;-83
2022/05/28 06:33:11;;;;;;;5.72;4.22;;;19.20;99.90;;;;;;5027355;28;20017;-84
2022/05/28 06:35:37;;;;;;;11.43;4.35;;;19.40;99.90;;;;;;5044066;28;20056;-83
2022/05/28 06:38:04;;;;;;;6.93;4.35;;;19.40;99.90;;;;;;5021293;28;20111;-82
2022/05/28 06:40:29;;;;;;;8.45;4.13;;;19.60;99.90;;;;;;5042571;28;20017;-83
2022/05/28 06:42:56;;;;;;;8.90;3.90;;;19.70;99.90;;;;;;5025793;28;20518;-81
2022/05/28 06:45:23;;;;;;;7.57;4.03;;;19.70;99.90;;;;;;5024231;28;20021;-82
2022/05/28 06:47:49;;;;;;;8.20;3.70;;;19.60;99.90;;;;;;5037102;28;20033;-82
2022/05/28 06:53:01;;;;;;;11.55;4.20;;;19.60;99.90;;;;;;5035660;28;20053;-83
2022/05/28 06:55:27;;;;;;;5.50;3.72;;;19.50;99.90;;;;;;5043499;28;20018;-84
2022/05/28 06:57:53;;;;;;;15.18;4.47;;;19.30;99.90;;;;;;5027370;28;20025;-86
2022/05/28 07:00:19;;;;;;;9.68;4.50;;;19.20;99.90;;;;;;5037254;28;20028;-81
2022/05/28 07:02:45;;;;;;;9.13;4.10;;;19.10;99.90;;;;;;5018113;28;20025;-90
2022/05/28 07:05:12;;;;;;;10.00;3.70;;;19.00;99.90;;;;;;5042131;28;20034;-83
2022/05/28 07:07:38;;;;;;;11.43;3.83;;;19.00;99.90;;;;;;5017323;28;20033;-83
2022/05/28 07:10:05;;;;;;;16.23;4.45;;;19.10;99.90;;;;;;5036473;28;20025;-85
2022/05/28 07:12:30;;;;;;;8.63;3.65;;;19.20;99.90;;;;;;5034631;28;20024;-84
2022/05/28 07:14:56;;;;;;;9.10;3.50;;;19.30;99.90;;;;;;5039187;28;20040;-85
2022/05/28 07:17:22;;;;;;;6.50;3.10;;;19.30;99.90;;;;;;5033798;28;20083;-85
2022/05/28 07:19:49;;;;;;;5.97;3.42;;;19.40;99.90;;;;;;5042755;28;20021;-85
2022/05/28 07:22:15;;;;;;;4.35;2.58;;;19.40;99.90;;;;;;5043976;28;20502;-84
2022/05/28 07:24:41;;;;;;;6.10;2.50;;;19.40;99.90;;;;;;5021703;28;20403;-85
2022/05/28 07:27:07;;;;;;;7.53;2.70;;;19.50;99.90;;;;;;5045198;28;20033;-84
2022/05/28 07:29:32;;;;;;;12.80;2.80;;;19.50;99.90;;;;;;5037555;28;20587;-83
2022/05/28 07:31:58;;;;;;;2.95;1.88;;;19.40;99.90;;;;;;5039854;28;20067;-85
2022/05/28 07:34:24;;;;;;;5.03;2.70;;;19.30;99.90;;;;;;5024916;28;20614;-91
2022/05/28 07:36:50;;;;;;;10.13;2.60;;;19.10;99.90;;;;;;5021246;28;20075;-83
2022/05/28 07:39:16;;;;;;;16.08;2.78;;;19.10;99.90;;;;;;5041220;28;20029;-90
2022/05/28 07:41:43;;;;;;;6.20;2.10;;;19.10;99.90;;;;;;5043777;28;20052;-90
2022/05/28 07:44:09;;;;;;;3.72;2.05;;;19.30;99.90;;;;;;5017029;28;20384;-84
2022/05/28 07:46:35;;;;;;;8.20;2.00;;;19.50;99.90;;;;;;5018969;28;20053;-81
2022/05/28 07:49:03;;;;;;;7.05;2.00;;;19.50;99.90;;;;;;5029131;28;20531;-81
2022/05/28 07:51:29;;;;;;;3.75;2.03;;;19.50;99.90;;;;;;5033509;28;20044;-81
2022/05/28 07:53:54;;;;;;;7.10;1.95;;;19.70;99.90;;;;;;5035613;28;20075;-82
2022/05/28 07:56:20;;;;;;;5.15;1.92;;;19.80;99.90;;;;;;5024480;28;20052;-81
2022/05/28 07:58:46;;;;;;;5.57;1.98;;;19.90;99.90;;;;;;5017379;28;20076;-82
2022/05/28 08:01:23;;;;;;;4.55;1.90;;;20.00;99.90;;;;;;5028961;28;20043;-88
2022/05/28 08:03:49;;;;;;;13.27;2.35;;;20.10;99.90;;;;;;5022350;28;20029;-81
2022/05/28 08:06:18;;;;;;;4.97;1.75;;;20.30;99.90;;;;;;5019816;28;20025;-84
2022/05/28 08:08:43;;;;;;;4.57;2.00;;;20.30;99.90;;;;;;5013572;28;20037;-82
2022/05/28 08:11:09;;;;;;;6.90;1.85;;;20.40;99.90;;;;;;5034657;28;20020;-83
2022/05/28 08:13:36;;;;;;;4.30;1.60;;;20.30;99.90;;;;;;5030569;28;20120;-83
2022/05/28 08:16:01;;;;;;;2.47;1.70;;;20.20;99.90;;;;;;5039787;28;20029;-81
2022/05/28 08:18:28;;;;;;;4.45;2.00;;;20.00;99.90;;;;;;5039978;28;20025;-84
2022/05/28 08:23:41;;;;;;;7.60;1.90;;;20.00;99.90;;;;;;5026227;28;20103;-83
2022/05/28 08:26:08;;;;;;;6.72;1.65;;;20.00;99.90;;;;;;5031515;28;20045;-83
2022/05/28 08:28:36;;;;;;;5.20;1.83;;;20.10;99.90;;;;;;5036551;28;20118;-85
2022/05/28 08:31:02;;;;;;;5.22;1.65;;;20.10;99.90;;;;;;5041140;28;20033;-83
2022/05/28 08:33:28;;;;;;;6.40;1.90;;;20.10;99.90;;;;;;5040905;28;20032;-84
2022/05/28 08:35:55;;;;;;;13.15;1.70;;;19.90;99.90;;;;;;5040388;28;20014;-84
2022/05/28 08:38:30;;;;;;;7.47;1.63;;;19.70;99.90;;;;;;5036267;28;20171;-83
2022/05/28 08:41:21;;;;;;;3.70;1.58;;;19.50;99.90;;;;;;5027239;28;20495;-87
2022/05/28 08:43:52;;;;;;;3.28;1.65;;;19.50;99.90;;;;;;5038973;28;20543;-85
2022/05/28 08:46:18;;;;;;;4.38;1.45;;;19.60;99.90;;;;;;5041795;28;20114;-90
2022/05/28 08:48:51;;;;;;;2.60;1.50;;;19.80;99.90;;;;;;5019581;28;20130;-84
2022/05/28 08:51:29;;;;;;;4.78;2.10;;;19.80;99.90;;;;;;5048664;28;20102;-83
2022/05/28 08:54:13;;;;;;;8.63;1.73;;;19.80;99.90;;;;;;5046603;28;20033;-83
2022/05/28 08:56:39;;;;;;;4.95;1.70;;;20.00;99.90;;;;;;5025868;28;20083;-81
2022/05/28 08:59:10;;;;;;;3.95;1.70;;;20.30;99.90;;;;;;5039881;28;20029;-86
2022/05/28 09:01:40;;;;;;;9.90;1.95;;;20.50;99.90;;;;;;5020604;28;20502;-83
2022/05/28 09:04:13;;;;;;;6.07;2.08;;;20.80;99.90;;;;;;5046106;28;20036;-82
2022/05/28 09:06:43;;;;;;;;;;;20.80;99.90;;;;;;5036090;28;20028;-83
2022/05/28 09:09:12;;;;;;;3.33;1.70;;;20.70;99.90;;;;;;5043222;28;20318;-82
2022/05/28 09:11:51;;;;;;;10.57;1.83;;;20.30;99.90;;;;;;5028142;28;20033;-85
2022/05/28 09:14:30;;;;;;;10.38;1.80;;;20.00;99.90;;;;;;5039562;28;20025;-82
2022/05/28 09:17:04;;;;;;;3.75;1.75;;;19.80;99.90;;;;;;5037335;28;20029;-81
2022/05/28 09:19:40;;;;;;;7.20;1.92;;;19.90;99.90;;;;;;5027388;28;20546;-79
2022/05/28 09:22:05;;;;;;;3.97;1.60;;;20.00;99.90;;;;;;5041512;28;20060;-81
2022/05/28 09:24:33;;;;;;;2.13;1.17;;;20.10;99.90;;;;;;5018121;28;20073;-81
2022/05/28 09:27:05;;;;;;;9.23;1.88;;;20.10;99.90;;;;;;5028987;28;20069;-81
2022/05/28 09:30:06;;;;;;;3.25;1.45;;;20.10;99.90;;;;;;5034933;28;20028;-81
2022/05/28 09:33:15;;;;;;;5.22;1.60;;;20.20;99.90;;;;;;4966977;28;20038;-82
2022/05/28 09:35:53;;;;;;;10.95;1.80;;;20.20;99.90;;;;;;4976752;28;20107;-80
2022/05/28 09:38:39;;;;;;;4.75;1.55;;;20.10;99.90;;;;;;5010466;28;20452;-80
2022/05/28 09:41:14;;;;;;;4.55;1.35;;;20.10;99.90;;;;;;5009058;28;20025;-81
2022/05/28 09:44:01;;;;;;;3.97;1.67;;;20.10;99.90;;;;;;5007218;28;20036;-81
2022/05/28 09:46:39;;;;;;;1.48;1.20;;;20.20;99.90;;;;;;5037515;28;20554;-79
2022/05/28 09:49:23;;;;;;;1.63;1.20;;;20.10;99.90;;;;;;5023642;28;20044;-80
2022/05/28 09:51:57;;;;;;;4.35;1.73;;;20.10;99.90;;;;;;5028032;28;20141;-81
2022/05/28 09:54:30;;;;;;;3.17;1.55;;;20.00;99.90;;;;;;5023261;28;20691;-81
2022/05/28 09:57:22;;;;;;;2.17;1.63;;;20.00;99.90;;;;;;5037086;28;20468;-82
2022/05/28 09:59:55;;;;;;;9.18;1.70;;;20.00;99.90;;;;;;5037696;28;20030;-81
2022/05/28 10:02:34;;;;;;;5.40;1.30;;;20.00;99.90;;;;;;5039230;28;20025;-81
2022/05/28 10:05:20;;;;;;;11.60;1.88;;;20.10;99.90;;;;;;5036448;28;20036;-81
2022/05/28 10:07:49;;;;;;;10.50;1.60;;;20.10;99.90;;;;;;5043728;28;20045;-82
2022/05/28 10:10:26;;;;;;;4.13;1.13;;;20.20;99.90;;;;;;5041770;28;20570;-80
2022/05/28 10:12:52;;;;;;;10.85;1.52;;;20.50;99.90;;;;;;5038636;28;20082;-81
2022/05/28 10:15:23;;;;;;;9.82;1.52;;;20.60;99.90;;;;;;5038961;28;20017;-80
2022/05/28 10:18:16;;;;;;;5.65;1.92;;;20.90;99.90;;;;;;5039316;28;20024;-82
2022/05/28 10:20:42;;;;;;;5.40;1.73;;;21.00;99.90;;;;;;5030499;28;20045;-81
2022/05/28 10:23:15;;;;;;;3.17;1.40;;;21.30;99.90;;;;;;5039285;28;20176;-81
2022/05/28 10:25:48;;;;;;;4.30;1.58;;;21.40;99.90;;;;;;5038868;28;20100;-82
2022/05/28 10:28:26;;;;;;;3.40;1.60;;;21.30;99.90;;;;;;5021545;28;20033;-81
2022/05/28 10:30:53;;;;;;;7.07;1.42;;;21.00;99.90;;;;;;5040174;28;20100;-82
2022/05/28 10:33:25;;;;;;;1.45;1.02;;;21.00;99.90;;;;;;5040067;28;20060;-82
2022/05/28 10:35:52;;;;;;;6.13;1.50;;;20.70;99.90;;;;;;5035635;28;20523;-82
2022/05/28 10:38:23;;;;;;;5.78;1.42;;;20.20;99.90;;;;;;5038666;28;20035;-82
2022/05/28 10:40:57;;;;;;;5.65;1.27;;;20.00;99.90;;;;;;5045039;28;20061;-81
2022/05/28 10:43:34;;;;;;;3.38;1.52;;;19.80;99.90;;;;;;5043401;28;20017;-80
2022/05/28 10:46:15;;;;;;;1.45;1.20;;;19.60;99.90;;;;;;5033783;28;20060;-81
2022/05/28 10:49:03;;;;;;;5.72;1.40;;;19.30;99.90;;;;;;5032304;28;20033;-82
2022/05/28 10:51:59;;;;;;;4.05;1.17;;;19.10;99.90;;;;;;5018378;28;20492;-82
2022/05/28 10:54:46;;;;;;;3.30;1.10;;;19.00;99.90;;;;;;5021245;28;20071;-81
2022/05/28 10:57:30;;;;;;;1.58;1.20;;;19.00;99.90;;;;;;5043256;28;20028;-82
2022/05/28 11:00:02;;;;;;;2.47;1.27;;;19.10;99.90;;;;;;5035441;28;20021;-80
2022/05/28 11:02:41;;;;;;;;;;;19.20;99.90;;;;;;5027785;28;20056;-81
2022/05/28 11:05:16;;;;;;;3.33;1.50;;;19.40;99.90;;;;;;5021463;28;20003;-82
2022/05/28 11:07:52;;;;;;;2.33;1.20;;;19.40;99.90;;;;;;5038793;28;20047;-81
2022/05/28 11:10:32;;;;;;;1.65;1.05;;;19.40;99.90;;;;;;5013704;28;20020;-81
2022/05/28 11:13:04;;;;;;;3.53;1.17;;;19.50;99.90;;;;;;5034942;28;20021;-82
2022/05/28 11:15:53;;;;;;;1.00;0.90;;;19.50;99.90;;;;;;5024251;28;20021;-82
2022/05/28 11:18:31;;;;;;;5.00;1.20;;;19.50;99.90;;;;;;4966523;28;20284;-81
2022/05/28 11:21:20;;;;;;;6.35;1.10;;;19.40;99.90;;;;;;5036693;28;20025;-82
2022/05/28 11:24:13;;;;;;;3.58;1.40;;;19.30;99.90;;;;;;5011764;28;20036;-82
2022/05/28 11:27:17;;;;;;;2.60;1.25;;;19.10;99.90;;;;;;5043889;28;20021;-82
2022/05/28 11:29:58;;;;;;;13.45;1.20;;;18.80;99.90;;;;;;4969402;28;20061;-81
2022/05/28 11:32:37;;;;;;;2.50;1.25;;;18.60;99.90;;;;;;5044983;28;20029;-80
2022/05/28 11:35:42;;;;;;;9.85;1.38;;;18.60;99.90;;;;;;5042133;28;20017;-80
2022/05/28 11:38:13;;;;;;;3.60;1.10;;;18.50;99.90;;;;;;4996491;28;20041;-87
2022/05/28 11:41:12;;;;;;;4.27;1.63;;;18.40;99.90;;;;;;5016535;28;20034;-81
2022/05/28 11:43:50;;;;;;;3.40;1.58;;;17.90;99.90;;;;;;5029175;28;20058;-78
2022/05/28 11:46:28;;;;;;;3.65;1.50;;;17.30;99.90;;;;;;5016854;28;20044;-81
2022/05/28 11:52:08;;;;;;;3.20;1.35;;;16.80;99.90;;;;;;5036800;28;20141;-82
2022/05/28 11:55:03;;;;;;;2.00;1.38;;;16.80;99.90;;;;;;5020681;28;20055;-81
2022/05/28 11:57:57;;;;;;;2.17;1.40;;;16.90;99.90;;;;;;5004254;28;20109;-81
2022/05/28 12:00:25;;;;;;;5.13;1.52;;;17.20;99.90;;;;;;5036051;28;20112;-81
2022/05/28 12:03:04;;;;;;;2.90;1.40;;;17.50;99.90;;;;;;5028890;28;20036;-80
2022/05/28 12:05:55;;;;;;;8.85;1.20;;;17.90;99.90;;;;;;5041832;28;20044;-81
2022/05/28 12:08:27;;;;;;;1.30;1.00;;;18.50;99.90;;;;;;5015317;28;20407;-82
2022/05/28 12:11:05;;;;;;;2.88;1.42;;;19.00;99.90;;;;;;5044381;28;20094;-81
2022/05/28 12:13:53;;;;;;;7.20;1.00;;;19.40;99.90;;;;;;5026170;28;20108;-80
2022/05/28 12:16:21;;;;;;;4.32;0.80;;;19.40;99.90;;;;;;5027289;28;20028;-81
2022/05/28 12:19:01;;;;;;;1.60;0.90;;;19.20;99.90;;;;;;5024504;28;20484;-82
2022/05/28 12:21:33;;;;;;;4.28;1.10;;;19.20;99.90;;;;;;5047029;28;20021;-81
2022/05/28 12:24:19;;;;;;;1.58;1.17;;;19.40;99.90;;;;;;5043462;28;20033;-81
2022/05/28 12:29:41;;;;;;;8.80;1.00;;;19.60;99.90;;;;;;5037030;28;20125;-82
2022/05/28 12:32:18;;;;;;;2.67;0.98;;;19.60;99.90;;;;;;5044358;28;20371;-81
2022/05/28 12:35:02;;;;;;;3.17;0.70;;;20.00;99.90;;;;;;5042695;28;20025;-83
2022/05/28 12:37:34;;;;;;;1.98;0.90;;;20.90;99.90;;;;;;5023295;28;20045;-82
2022/05/28 12:40:23;;;;;;;0.50;0.50;;;22.00;99.90;;;;;;5044757;28;20017;-82
2022/05/28 12:42:49;;;;;;;0.93;0.73;;;22.00;99.90;;;;;;5045869;28;20021;-81
2022/05/28 12:45:16;;;;;;;6.65;0.88;;;21.10;99.90;;;;;;5044236;28;20079;-81
2022/05/28 12:47:43;;;;;;;1.08;0.60;;;20.50;99.90;;;;;;5041175;28;20040;-83
2022/05/28 12:50:44;;;;;;;2.17;0.80;;;20.10;99.90;;;;;;5019287;28;20021;-79
2022/05/28 12:53:17;;;;;;;2.58;0.65;;;20.10;99.90;;;;;;5004731;28;20034;-82
2022/05/28 12:55:43;;;;;;;2.58;0.75;;;20.10;99.90;;;;;;5034542;28;20030;-82
2022/05/28 12:58:23;;;;;;;1.83;0.52;;;20.10;99.90;;;;;;5040953;28;20029;-80
2022/05/28 13:00:54;;;;;;;1.45;0.80;;;20.20;99.90;;;;;;5018900;28;20108;-82
2022/05/28 13:03:22;;;;;;;5.25;0.95;;;20.40;99.90;;;;;;5020172;28;20399;-81
2022/05/28 13:05:52;;;;;;;8.25;0.68;;;21.10;99.90;;;;;;5043081;28;20048;-81
2022/05/28 13:08:30;;;;;;;18.10;1.38;;;22.20;99.90;;;;;;5020824;28;20037;-81
2022/05/28 13:10:59;;;;;;;4.55;0.60;;;21.90;99.90;;;;;;5038600;28;20090;-81
2022/05/28 13:13:28;;;;;;;2.90;0.50;;;22.00;99.90;;;;;;5030034;28;20029;-81
2022/05/28 13:16:05;;;;;;;1.77;0.73;;;23.20;99.90;;;;;;5040148;28;20025;-82